sensor_id;sensor_type;location;lat;lon;timestamp;P1;durP1;ratioP1;P2;durP2;ratioP2
53642;SDS011;39546;45.534;12.048;2022-08-21T00:00:04;6.07;;;1.55;;
53642;SDS011;39546;45.534;12.048;2022-08-21T00:06:13;1.75;;;1.10;;
53642;SDS011;39546;45.534;12.048;2022-08-21T00:12:16;1.80;;;1.17;;
53642;SDS011;39546;45.534;12.048;2022-08-21T00:18:18;1.75;;;0.82;;
53642;SDS011;39546;45.534;12.048;2022-08-21T00:24:21;2.15;;;1.17;;
53642;SDS011;39546;45.534;12.048;2022-08-21T00:30:24;2.62;;;1.20;;
53642;SDS011;39546;45.534;12.048;2022-08-21T00:36:27;1.05;;;0.73;;
53642;SDS011;39546;45.534;12.048;2022-08-21T00:42:30;1.60;;;0.80;;
53642;SDS011;39546;45.534;12.048;2022-08-21T00:48:32;1.90;;;1.33;;
53642;SDS011;39546;45.534;12.048;2022-08-21T00:54:35;2.83;;;1.35;;
53642;SDS011;39546;45.534;12.048;2022-08-21T01:00:41;1.85;;;1.30;;
53642;SDS011;39546;45.534;12.048;2022-08-21T01:06:44;1.10;;;0.77;;
53642;SDS011;39546;45.534;12.048;2022-08-21T01:12:46;3.05;;;1.30;;
53642;SDS011;39546;45.534;12.048;2022-08-21T01:18:49;2.67;;;1.58;;
53642;SDS011;39546;45.534;12.048;2022-08-21T01:24:51;4.18;;;1.83;;
53642;SDS011;39546;45.534;12.048;2022-08-21T01:37:45;2.65;;;1.33;;
53642;SDS011;39546;45.534;12.048;2022-08-21T01:43:48;4.82;;;1.77;;
53642;SDS011;39546;45.534;12.048;2022-08-21T01:49:50;3.08;;;1.73;;
53642;SDS011;39546;45.534;12.048;2022-08-21T01:55:52;2.47;;;1.42;;
53642;SDS011;39546;45.534;12.048;2022-08-21T02:01:54;1.58;;;1.48;;
53642;SDS011;39546;45.534;12.048;2022-08-21T02:07:56;3.40;;;1.45;;
53642;SDS011;39546;45.534;12.048;2022-08-21T02:13:59;4.12;;;2.03;;
53642;SDS011;39546;45.534;12.048;2022-08-21T02:20:01;2.12;;;1.40;;
53642;SDS011;39546;45.534;12.048;2022-08-21T02:26:04;0.85;;;0.80;;
53642;SDS011;39546;45.534;12.048;2022-08-21T02:32:07;7.35;;;1.90;;
53642;SDS011;39546;45.534;12.048;2022-08-21T02:38:11;2.80;;;1.67;;
53642;SDS011;39546;45.534;12.048;2022-08-21T02:44:15;1.90;;;1.48;;
53642;SDS011;39546;45.534;12.048;2022-08-21T02:50:20;2.30;;;1.45;;
53642;SDS011;39546;45.534;12.048;2022-08-21T02:56:30;2.60;;;1.55;;
53642;SDS011;39546;45.534;12.048;2022-08-21T03:02:32;2.58;;;1.85;;
53642;SDS011;39546;45.534;12.048;2022-08-21T03:08:36;2.87;;;1.52;;
53642;SDS011;39546;45.534;12.048;2022-08-21T03:14:39;3.62;;;1.40;;
53642;SDS011;39546;45.534;12.048;2022-08-21T03:20:41;2.60;;;1.52;;
53642;SDS011;39546;45.534;12.048;2022-08-21T03:26:44;3.17;;;2.08;;
53642;SDS011;39546;45.534;12.048;2022-08-21T03:32:46;2.70;;;1.55;;
53642;SDS011;39546;45.534;12.048;2022-08-21T03:38:49;2.83;;;1.48;;
53642;SDS011;39546;45.534;12.048;2022-08-21T03:44:51;1.92;;;1.15;;
53642;SDS011;39546;45.534;12.048;2022-08-21T03:50:53;3.60;;;1.70;;
53642;SDS011;39546;45.534;12.048;2022-08-21T03:56:55;2.30;;;1.33;;
53642;SDS011;39546;45.534;12.048;2022-08-21T04:02:58;2.92;;;1.77;;
53642;SDS011;39546;45.534;12.048;2022-08-21T04:09:00;3.65;;;2.20;;
53642;SDS011;39546;45.534;12.048;2022-08-21T04:15:02;3.03;;;1.77;;
53642;SDS011;39546;45.534;12.048;2022-08-21T04:21:05;2.65;;;2.00;;
53642;SDS011;39546;45.534;12.048;2022-08-21T04:27:09;1.23;;;1.05;;
53642;SDS011;39546;45.534;12.048;2022-08-21T04:33:11;2.50;;;1.50;;
53642;SDS011;39546;45.534;12.048;2022-08-21T04:39:13;3.08;;;1.73;;
53642;SDS011;39546;45.534;12.048;2022-08-21T04:45:19;2.35;;;1.30;;
53642;SDS011;39546;45.534;12.048;2022-08-21T04:51:41;3.08;;;1.75;;
53642;SDS011;39546;45.534;12.048;2022-08-21T04:57:43;3.53;;;1.55;;
53642;SDS011;39546;45.534;12.048;2022-08-21T05:03:45;3.95;;;2.33;;
53642;SDS011;39546;45.534;12.048;2022-08-21T05:16:47;3.28;;;2.00;;
53642;SDS011;39546;45.534;12.048;2022-08-21T05:22:50;2.37;;;1.98;;
53642;SDS011;39546;45.534;12.048;2022-08-21T05:28:52;2.67;;;1.52;;
53642;SDS011;39546;45.534;12.048;2022-08-21T05:34:54;4.12;;;2.45;;
53642;SDS011;39546;45.534;12.048;2022-08-21T05:40:59;3.60;;;2.03;;
53642;SDS011;39546;45.534;12.048;2022-08-21T05:47:04;6.00;;;1.85;;
53642;SDS011;39546;45.534;12.048;2022-08-21T05:53:11;2.65;;;1.70;;
53642;SDS011;39546;45.534;12.048;2022-08-21T05:59:13;2.12;;;1.75;;
53642;SDS011;39546;45.534;12.048;2022-08-21T06:05:16;6.50;;;2.22;;
53642;SDS011;39546;45.534;12.048;2022-08-21T06:11:47;2.85;;;1.70;;
53642;SDS011;39546;45.534;12.048;2022-08-21T06:17:49;2.10;;;1.35;;
53642;SDS011;39546;45.534;12.048;2022-08-21T06:23:51;2.03;;;1.20;;
53642;SDS011;39546;45.534;12.048;2022-08-21T06:30:32;2.25;;;1.27;;
53642;SDS011;39546;45.534;12.048;2022-08-21T06:36:34;1.25;;;0.98;;
53642;SDS011;39546;45.534;12.048;2022-08-21T06:42:37;1.58;;;0.88;;
53642;SDS011;39546;45.534;12.048;2022-08-21T06:48:39;2.15;;;1.02;;
53642;SDS011;39546;45.534;12.048;2022-08-21T06:54:41;0.88;;;0.62;;
53642;SDS011;39546;45.534;12.048;2022-08-21T07:00:45;1.05;;;0.80;;
53642;SDS011;39546;45.534;12.048;2022-08-21T07:06:51;1.27;;;0.95;;
53642;SDS011;39546;45.534;12.048;2022-08-21T07:12:53;1.15;;;0.80;;
53642;SDS011;39546;45.534;12.048;2022-08-21T07:18:56;0.95;;;0.62;;
53642;SDS011;39546;45.534;12.048;2022-08-21T07:24:58;1.62;;;0.60;;
53642;SDS011;39546;45.534;12.048;2022-08-21T07:31:00;0.82;;;0.52;;
53642;SDS011;39546;45.534;12.048;2022-08-21T07:37:05;1.10;;;0.75;;
53642;SDS011;39546;45.534;12.048;2022-08-21T07:43:07;2.05;;;0.77;;
53642;SDS011;39546;45.534;12.048;2022-08-21T07:49:10;1.48;;;0.70;;
53642;SDS011;39546;45.534;12.048;2022-08-21T07:55:13;1.12;;;0.60;;
53642;SDS011;39546;45.534;12.048;2022-08-21T08:01:37;1.85;;;0.98;;
53642;SDS011;39546;45.534;12.048;2022-08-21T08:07:39;4.18;;;0.65;;
53642;SDS011;39546;45.534;12.048;2022-08-21T08:13:43;1.33;;;0.88;;
53642;SDS011;39546;45.534;12.048;2022-08-21T08:19:47;0.40;;;0.40;;
53642;SDS011;39546;45.534;12.048;2022-08-21T08:25:50;2.62;;;1.77;;
53642;SDS011;39546;45.534;12.048;2022-08-21T08:31:51;2.65;;;1.12;;
53642;SDS011;39546;45.534;12.048;2022-08-21T08:37:54;1.12;;;0.90;;
53642;SDS011;39546;45.534;12.048;2022-08-21T08:44:00;2.53;;;1.48;;
53642;SDS011;39546;45.534;12.048;2022-08-21T08:50:06;2.10;;;1.17;;
53642;SDS011;39546;45.534;12.048;2022-08-21T08:56:12;1.33;;;0.73;;
53642;SDS011;39546;45.534;12.048;2022-08-21T09:02:15;1.35;;;0.73;;
53642;SDS011;39546;45.534;12.048;2022-08-21T09:08:31;1.42;;;0.82;;
53642;SDS011;39546;45.534;12.048;2022-08-21T09:27:34;2.28;;;1.08;;
53642;SDS011;39546;45.534;12.048;2022-08-21T09:33:37;2.20;;;1.08;;
53642;SDS011;39546;45.534;12.048;2022-08-21T09:39:39;1.12;;;0.80;;
53642;SDS011;39546;45.534;12.048;2022-08-21T09:45:42;3.10;;;1.65;;
53642;SDS011;39546;45.534;12.048;2022-08-21T09:51:49;2.05;;;1.30;;
53642;SDS011;39546;45.534;12.048;2022-08-21T09:57:55;1.42;;;0.93;;
53642;SDS011;39546;45.534;12.048;2022-08-21T10:04:06;2.97;;;1.10;;
53642;SDS011;39546;45.534;12.048;2022-08-21T10:10:24;1.00;;;0.80;;
53642;SDS011;39546;45.534;12.048;2022-08-21T10:16:48;1.70;;;0.80;;
53642;SDS011;39546;45.534;12.048;2022-08-21T10:29:31;0.75;;;0.73;;
53642;SDS011;39546;45.534;12.048;2022-08-21T10:55:21;1.33;;;0.82;;
53642;SDS011;39546;45.534;12.048;2022-08-21T11:13:59;0.90;;;0.55;;
53642;SDS011;39546;45.534;12.048;2022-08-21T11:20:28;2.55;;;0.95;;
53642;SDS011;39546;45.534;12.048;2022-08-21T11:33:04;1.00;;;0.70;;
53642;SDS011;39546;45.534;12.048;2022-08-21T11:45:54;1.05;;;0.73;;
53642;SDS011;39546;45.534;12.048;2022-08-21T11:58:43;1.83;;;0.57;;
53642;SDS011;39546;45.534;12.048;2022-08-21T12:05:00;1.80;;;0.80;;
53642;SDS011;39546;45.534;12.048;2022-08-21T12:11:09;1.45;;;0.65;;
53642;SDS011;39546;45.534;12.048;2022-08-21T12:17:36;1.45;;;0.73;;
53642;SDS011;39546;45.534;12.048;2022-08-21T12:23:44;1.87;;;0.93;;
53642;SDS011;39546;45.534;12.048;2022-08-21T12:29:50;1.20;;;0.80;;
53642;SDS011;39546;45.534;12.048;2022-08-21T12:36:06;2.53;;;0.57;;
53642;SDS011;39546;45.534;12.048;2022-08-21T12:42:16;2.03;;;1.12;;
53642;SDS011;39546;45.534;12.048;2022-08-21T12:48:25;4.20;;;1.80;;
53642;SDS011;39546;45.534;12.048;2022-08-21T12:54:32;2.53;;;1.10;;
53642;SDS011;39546;45.534;12.048;2022-08-21T13:00:40;1.95;;;0.73;;
53642;SDS011;39546;45.534;12.048;2022-08-21T13:06:54;4.82;;;1.05;;
53642;SDS011;39546;45.534;12.048;2022-08-21T13:13:02;2.10;;;1.00;;
53642;SDS011;39546;45.534;12.048;2022-08-21T13:19:06;4.25;;;1.27;;
53642;SDS011;39546;45.534;12.048;2022-08-21T13:25:13;4.53;;;1.25;;
53642;SDS011;39546;45.534;12.048;2022-08-21T13:31:22;2.28;;;0.98;;
53642;SDS011;39546;45.534;12.048;2022-08-21T13:37:29;2.45;;;1.20;;
53642;SDS011;39546;45.534;12.048;2022-08-21T13:43:32;3.45;;;0.93;;
53642;SDS011;39546;45.534;12.048;2022-08-21T13:49:37;1.62;;;1.15;;
53642;SDS011;39546;45.534;12.048;2022-08-21T13:55:42;3.12;;;1.50;;
53642;SDS011;39546;45.534;12.048;2022-08-21T14:01:49;2.55;;;1.05;;
53642;SDS011;39546;45.534;12.048;2022-08-21T14:08:41;1.73;;;0.77;;
53642;SDS011;39546;45.534;12.048;2022-08-21T14:14:50;0.88;;;0.57;;
53642;SDS011;39546;45.534;12.048;2022-08-21T14:21:08;1.87;;;0.98;;
53642;SDS011;39546;45.534;12.048;2022-08-21T14:27:11;1.17;;;0.65;;
53642;SDS011;39546;45.534;12.048;2022-08-21T14:33:20;2.53;;;0.85;;
53642;SDS011;39546;45.534;12.048;2022-08-21T14:45:27;3.10;;;1.08;;
53642;SDS011;39546;45.534;12.048;2022-08-21T14:51:30;2.58;;;0.80;;
53642;SDS011;39546;45.534;12.048;2022-08-21T14:57:33;2.65;;;0.90;;
53642;SDS011;39546;45.534;12.048;2022-08-21T15:03:37;2.75;;;0.62;;
53642;SDS011;39546;45.534;12.048;2022-08-21T15:09:40;3.95;;;0.98;;
53642;SDS011;39546;45.534;12.048;2022-08-21T15:15:44;2.72;;;0.80;;
53642;SDS011;39546;45.534;12.048;2022-08-21T15:21:48;0.70;;;0.60;;
53642;SDS011;39546;45.534;12.048;2022-08-21T15:27:50;1.95;;;0.62;;
53642;SDS011;39546;45.534;12.048;2022-08-21T15:33:53;0.75;;;0.55;;
53642;SDS011;39546;45.534;12.048;2022-08-21T15:39:55;1.30;;;0.68;;
53642;SDS011;39546;45.534;12.048;2022-08-21T15:45:58;1.42;;;0.60;;
53642;SDS011;39546;45.534;12.048;2022-08-21T15:52:02;1.15;;;0.75;;
53642;SDS011;39546;45.534;12.048;2022-08-21T15:58:04;2.78;;;0.75;;
53642;SDS011;39546;45.534;12.048;2022-08-21T16:04:07;1.50;;;0.60;;
53642;SDS011;39546;45.534;12.048;2022-08-21T16:10:12;1.30;;;0.43;;
53642;SDS011;39546;45.534;12.048;2022-08-21T16:16:33;2.37;;;0.80;;
53642;SDS011;39546;45.534;12.048;2022-08-21T16:22:36;1.35;;;0.55;;
53642;SDS011;39546;45.534;12.048;2022-08-21T16:28:41;0.50;;;0.50;;
53642;SDS011;39546;45.534;12.048;2022-08-21T16:34:47;0.95;;;0.68;;
53642;SDS011;39546;45.534;12.048;2022-08-21T16:40:52;1.62;;;0.90;;
53642;SDS011;39546;45.534;12.048;2022-08-21T16:46:54;1.17;;;0.70;;
53642;SDS011;39546;45.534;12.048;2022-08-21T16:52:56;1.90;;;0.73;;
53642;SDS011;39546;45.534;12.048;2022-08-21T16:58:58;2.05;;;1.12;;
53642;SDS011;39546;45.534;12.048;2022-08-21T17:05:01;2.20;;;1.10;;
53642;SDS011;39546;45.534;12.048;2022-08-21T17:11:37;1.92;;;0.77;;
53642;SDS011;39546;45.534;12.048;2022-08-21T17:17:33;1.35;;;0.98;;
53642;SDS011;39546;45.534;12.048;2022-08-21T17:23:36;1.08;;;0.77;;
53642;SDS011;39546;45.534;12.048;2022-08-21T17:29:38;3.70;;;0.98;;
53642;SDS011;39546;45.534;12.048;2022-08-21T17:35:41;3.85;;;1.23;;
53642;SDS011;39546;45.534;12.048;2022-08-21T17:41:44;2.70;;;1.37;;
53642;SDS011;39546;45.534;12.048;2022-08-21T17:47:51;2.22;;;1.00;;
53642;SDS011;39546;45.534;12.048;2022-08-21T17:59:55;3.75;;;1.17;;
53642;SDS011;39546;45.534;12.048;2022-08-21T18:05:58;1.45;;;0.60;;
53642;SDS011;39546;45.534;12.048;2022-08-21T18:12:00;8.43;;;1.67;;
53642;SDS011;39546;45.534;12.048;2022-08-21T18:18:02;2.62;;;0.50;;
53642;SDS011;39546;45.534;12.048;2022-08-21T18:24:08;0.98;;;0.50;;
53642;SDS011;39546;45.534;12.048;2022-08-21T18:30:11;14.55;;;1.45;;
53642;SDS011;39546;45.534;12.048;2022-08-21T18:36:16;6.15;;;1.45;;
53642;SDS011;39546;45.534;12.048;2022-08-21T18:42:18;3.62;;;1.52;;
53642;SDS011;39546;45.534;12.048;2022-08-21T18:48:20;7.28;;;2.00;;
53642;SDS011;39546;45.534;12.048;2022-08-21T18:54:23;3.75;;;1.33;;
53642;SDS011;39546;45.534;12.048;2022-08-21T19:00:33;4.12;;;1.40;;
53642;SDS011;39546;45.534;12.048;2022-08-21T19:06:45;3.33;;;1.60;;
53642;SDS011;39546;45.534;12.048;2022-08-21T19:12:48;3.97;;;2.03;;
53642;SDS011;39546;45.534;12.048;2022-08-21T19:18:50;3.83;;;1.90;;
53642;SDS011;39546;45.534;12.048;2022-08-21T19:24:53;3.65;;;1.80;;
53642;SDS011;39546;45.534;12.048;2022-08-21T19:30:59;9.07;;;2.72;;
53642;SDS011;39546;45.534;12.048;2022-08-21T19:37:14;4.07;;;1.92;;
53642;SDS011;39546;45.534;12.048;2022-08-21T19:43:17;4.75;;;1.52;;
53642;SDS011;39546;45.534;12.048;2022-08-21T19:49:20;5.87;;;2.10;;
53642;SDS011;39546;45.534;12.048;2022-08-21T19:55:25;2.33;;;1.35;;
53642;SDS011;39546;45.534;12.048;2022-08-21T20:01:28;3.78;;;1.95;;
53642;SDS011;39546;45.534;12.048;2022-08-21T20:07:30;2.17;;;1.70;;
53642;SDS011;39546;45.534;12.048;2022-08-21T20:13:33;4.18;;;2.40;;
53642;SDS011;39546;45.534;12.048;2022-08-21T20:19:36;2.58;;;1.23;;
53642;SDS011;39546;45.534;12.048;2022-08-21T20:25:39;2.70;;;1.65;;
53642;SDS011;39546;45.534;12.048;2022-08-21T20:31:42;2.72;;;1.00;;
53642;SDS011;39546;45.534;12.048;2022-08-21T20:37:44;2.28;;;1.02;;
53642;SDS011;39546;45.534;12.048;2022-08-21T20:43:46;4.00;;;0.82;;
53642;SDS011;39546;45.534;12.048;2022-08-21T20:49:50;0.88;;;0.57;;
53642;SDS011;39546;45.534;12.048;2022-08-21T20:55:56;0.82;;;0.52;;
53642;SDS011;39546;45.534;12.048;2022-08-21T21:02:09;1.87;;;0.95;;
53642;SDS011;39546;45.534;12.048;2022-08-21T21:08:45;0.95;;;0.75;;
53642;SDS011;39546;45.534;12.048;2022-08-21T21:15:04;1.40;;;0.75;;
53642;SDS011;39546;45.534;12.048;2022-08-21T21:21:23;4.57;;;0.75;;
53642;SDS011;39546;45.534;12.048;2022-08-21T21:33:42;1.02;;;0.73;;
53642;SDS011;39546;45.534;12.048;2022-08-21T22:17:57;4.32;;;1.85;;
53642;SDS011;39546;45.534;12.048;2022-08-21T22:24:13;2.78;;;1.27;;
53642;SDS011;39546;45.534;12.048;2022-08-21T22:37:16;0.47;;;0.47;;
53642;SDS011;39546;45.534;12.048;2022-08-21T22:43:21;6.32;;;0.82;;
53642;SDS011;39546;45.534;12.048;2022-08-21T22:49:30;8.52;;;1.52;;
53642;SDS011;39546;45.534;12.048;2022-08-21T22:55:52;1.60;;;0.73;;
53642;SDS011;39546;45.534;12.048;2022-08-21T23:08:45;2.05;;;0.95;;
53642;SDS011;39546;45.534;12.048;2022-08-21T23:14:48;0.62;;;0.55;;
53642;SDS011;39546;45.534;12.048;2022-08-21T23:21:11;2.20;;;1.37;;
53642;SDS011;39546;45.534;12.048;2022-08-21T23:34:11;1.80;;;1.08;;
53642;SDS011;39546;45.534;12.048;2022-08-21T23:52:40;3.90;;;1.35;;
